Heswall, United Kingdom
Current Conditions -  °F | °C
As of 6:20 AM on Monday 22 Dec 2014 (Local Time) from EGGP Reporting Station
Broken Clouds Broken Clouds  
Wind Chill: 13°   Ceiling: 4000
Heat Index: 13°   Visibility: 6mi
Dew Point:   Wind: 25mph
Humidity: 77%   Direction: 230°SW
Pressure: 29.85"   Gusts: 38mph
Location:  53.34°N, 3.1°W
Report Text: EGGP 220620Z 23022G33KT 9999 SCT022 BKN040 13/09 Q1011
Loading
Personal Weather Stations






























Interactive Weather Map New forecast layout! Learn more

10-Day Weather Forecast

Advertisements
Track Severe Weather on mobile